Time;durP1;ratioP1;P1;durP2;ratioP2;P2;SDS_P1;SDS_P2;PMS_P1;PMS_P2;Temp;Humidity;BMP_temperature;BMP_pressure;BME280_temperature;BME280_humidity;BME280_pressure;Samples;Min_cycle;Max_cycle;Signal;HPM_P1;HPM_P2
2022/10/09 00:01:24;;;;;;;13.20;7.10;;;;;;;12.09;87.43;98961.55;102768;1289;138364;-69
2022/10/09 00:03:53;;;;;;;13.10;7.10;;;;;;;12.09;86.94;98957.23;102707;1290;22497;-70
2022/10/09 00:06:26;;;;;;;11.70;6.70;;;;;;;12.08;86.64;98960.38;102760;1312;22499;-69
2022/10/09 00:08:53;;;;;;;10.40;7.00;;;;;;;12.08;86.05;98966.86;102700;1312;138227;-68
2022/10/09 00:11:23;;;;;;;11.80;6.80;;;;;;;12.06;85.72;98969.67;102718;1289;22494;-72
2022/10/09 00:13:51;;;;;;;8.50;5.80;;;;;;;12.04;85.38;98975.89;102627;1290;138713;-71
2022/10/09 00:16:19;;;;;;;9.70;5.70;;;;;;;12.02;85.18;98972.52;102750;1312;22551;-69
2022/10/09 00:18:46;;;;;;;12.10;6.20;;;;;;;12.01;84.44;98975.02;102693;1308;22501;-70
2022/10/09 00:21:24;;;;;;;9.40;4.80;;;;;;;11.98;84.23;98977.98;102643;1307;138239;-69
2022/10/09 00:23:55;;;;;;;8.20;4.40;;;;;;;11.95;84.35;98980.92;102785;1288;22513;-74
2022/10/09 00:26:23;;;;;;;7.20;4.30;;;;;;;11.93;83.93;98986.77;102704;1312;138084;-70
2022/10/09 00:28:51;;;;;;;6.80;4.10;;;;;;;11.93;83.59;98987.41;102749;1291;22479;-68
2022/10/09 00:31:18;;;;;;;8.00;5.10;;;;;;;11.91;83.93;98989.12;102538;1307;138315;-68
2022/10/09 00:33:45;;;;;;;7.00;4.30;;;;;;;11.89;83.47;98992.76;102499;1313;22515;-70
2022/10/09 00:36:21;;;;;;;7.00;3.90;;;;;;;11.86;83.33;98996.52;102492;1306;22625;-69
2022/10/09 00:38:49;;;;;;;11.50;5.00;;;;;;;11.85;83.66;99002.39;102522;1293;138176;-72
2022/10/09 00:41:20;;;;;;;7.90;4.40;;;;;;;11.84;83.48;99007.12;102519;1313;22534;-73
2022/10/09 00:43:48;;;;;;;8.70;4.70;;;;;;;11.83;83.31;99002.56;102435;1312;138155;-72
2022/10/09 00:46:38;;;;;;;6.50;4.50;;;;;;;11.82;83.54;99000.79;102540;1314;22491;-69
2022/10/09 00:49:28;;;;;;;9.20;5.00;;;;;;;11.81;83.40;98998.73;102355;1315;138316;-69
2022/10/09 00:51:58;;;;;;;9.60;4.70;;;;;;;11.79;83.61;99001.66;102527;1313;22531;-71
2022/10/09 00:54:30;;;;;;;9.10;4.00;;;;;;;11.78;83.31;99007.86;102478;1306;22549;-72
2022/10/09 00:56:58;;;;;;;8.00;4.90;;;;;;;11.75;83.26;99011.68;102568;1298;138025;-71
2022/10/09 00:59:26;;;;;;;9.80;4.30;;;;;;;11.75;83.18;99016.36;102648;1312;22489;-69
2022/10/09 01:01:53;;;;;;;7.20;4.40;;;;;;;11.73;83.46;99019.83;102625;1297;138134;-68
2022/10/09 01:04:20;;;;;;;8.00;4.10;;;;;;;11.72;83.23;99020.05;102695;1311;22599;-76
2022/10/09 01:06:46;;;;;;;7.80;4.30;;;;;;;11.70;83.18;99020.30;102467;1298;22602;-75
2022/10/09 01:09:18;;;;;;;7.60;4.10;;;;;;;11.68;83.21;99023.08;102454;1314;138042;-71
2022/10/09 01:11:50;;;;;;;7.50;3.90;;;;;;;11.66;82.93;99024.66;102497;1308;25373;-71
2022/10/09 01:14:43;;;;;;;5.70;3.70;;;;;;;11.64;82.68;99025.42;102454;1297;138202;-69
2022/10/09 01:17:41;;;;;;;8.50;3.40;;;;;;;11.60;82.99;99028.41;102724;1312;22520;-72
2022/10/09 01:20:25;;;;;;;9.00;3.80;;;;;;;11.56;82.72;99029.20;102602;1312;138004;-74
2022/10/09 01:23:16;;;;;;;6.40;3.80;;;;;;;11.54;83.10;99031.23;102705;1312;25392;-69
2022/10/09 01:26:05;;;;;;;8.30;3.70;;;;;;;11.52;82.55;99031.16;102500;1306;138226;-69
2022/10/09 01:28:34;;;;;;;9.10;4.30;;;;;;;11.49;83.20;99036.05;102516;1314;25273;-71
2022/10/09 01:31:05;;;;;;;8.00;3.30;;;;;;;11.44;83.10;99031.14;102463;1313;138139;-70
2022/10/09 01:33:33;;;;;;;8.20;3.10;;;;;;;11.37;83.83;99032.30;102628;1314;25421;-74
2022/10/09 01:36:01;;;;;;;5.60;2.90;;;;;;;11.31;84.18;99040.11;102654;1313;24306;-71
2022/10/09 01:38:29;;;;;;;6.70;2.90;;;;;;;11.26;84.47;99047.08;102827;1312;138391;-69
2022/10/09 01:40:57;;;;;;;6.80;2.90;;;;;;;11.20;84.48;99051.84;102807;1311;25462;-70
2022/10/09 01:43:24;;;;;;;5.30;3.70;;;;;;;11.15;85.03;99052.92;102784;1288;138239;-70
2022/10/09 01:45:51;;;;;;;10.30;6.20;;;;;;;11.11;85.05;99057.01;102793;1284;23889;-74
2022/10/09 01:48:24;;;;;;;15.00;8.00;;;;;;;11.08;84.86;99065.33;102692;1312;22721;-72
2022/10/09 01:51:02;;;;;;;7.50;4.80;;;;;;;11.06;85.52;99068.89;102588;1312;138248;-69
2022/10/09 01:53:30;;;;;;;6.00;3.60;;;;;;;11.03;85.12;99076.92;102702;1312;22780;-70
2022/10/09 01:56:12;;;;;;;9.00;3.50;;;;;;;11.00;85.18;99073.95;102705;1311;138099;-71
2022/10/09 01:58:47;;;;;;;7.70;3.60;;;;;;;10.95;85.70;99071.23;102791;1312;24301;-69
2022/10/09 02:01:18;;;;;;;5.70;2.90;;;;;;;10.91;85.44;99065.16;102739;1312;138181;-69
2022/10/09 02:03:48;;;;;;;5.20;2.30;;;;;;;10.87;85.41;99071.98;102673;1290;26745;-69
2022/10/09 02:06:18;;;;;;;6.60;2.60;;;;;;;10.84;85.40;99072.77;102685;1312;22523;-71
2022/10/09 02:08:49;;;;;;;5.20;2.60;;;;;;;10.80;85.19;99079.03;102683;1312;138044;-69
2022/10/09 02:11:17;;;;;;;6.50;2.30;;;;;;;10.75;85.77;99075.86;102702;1312;22744;-72
2022/10/09 02:13:46;;;;;;;5.60;2.30;;;;;;;10.71;85.48;99082.08;102581;1312;138307;-70
2022/10/09 02:16:39;;;;;;;6.50;2.50;;;;;;;10.69;85.86;99083.86;102770;1306;22679;-71
2022/10/09 02:19:22;;;;;;;4.70;2.40;;;;;;;10.65;85.92;99085.43;102628;1304;138094;-74
2022/10/09 02:22:12;;;;;;;3.80;2.40;;;;;;;10.61;86.06;99093.39;102664;1308;24179;-74
2022/10/09 02:24:41;;;;;;;5.00;2.20;;;;;;;10.58;86.36;99093.20;102749;1293;22547;-74
2022/10/09 02:27:09;;;;;;;5.90;2.40;;;;;;;10.56;86.29;99093.63;102651;1296;138026;-72
2022/10/09 02:29:42;;;;;;;2.50;2.10;;;;;;;10.54;86.38;99092.61;102731;1311;22478;-70
2022/10/09 02:32:10;;;;;;;5.60;2.60;;;;;;;10.53;86.78;99097.08;102538;1312;138046;-72
2022/10/09 02:34:37;;;;;;;7.00;2.80;;;;;;;10.50;86.89;99097.66;102763;1307;24353;-69
2022/10/09 02:37:05;;;;;;;3.70;2.40;;;;;;;10.48;86.62;99100.32;102618;1312;138747;-72
2022/10/09 02:39:32;;;;;;;6.80;2.30;;;;;;;10.46;86.75;99099.02;102695;1312;24426;-69
2022/10/09 02:41:59;;;;;;;5.40;2.60;;;;;;;10.41;86.95;99099.09;102665;1312;24360;-72
2022/10/09 02:44:26;;;;;;;2.80;2.10;;;;;;;10.37;87.17;99105.73;102600;1290;138018;-70
2022/10/09 02:46:53;;;;;;;6.00;2.40;;;;;;;10.32;86.81;99110.42;102677;1291;24276;-71
2022/10/09 02:49:20;;;;;;;6.70;2.20;;;;;;;10.28;87.23;99115.77;102581;1312;138623;-72
2022/10/09 02:51:47;;;;;;;7.50;3.80;;;;;;;10.23;87.45;99117.86;102696;1304;24017;-72
2022/10/09 02:54:14;;;;;;;3.60;2.30;;;;;;;10.21;87.52;99117.52;102691;1312;22645;-74
2022/10/09 02:56:41;;;;;;;7.10;2.70;;;;;;;10.19;87.63;99119.27;102563;1312;138179;-69
2022/10/09 02:59:08;;;;;;;8.70;2.80;;;;;;;10.16;87.81;99126.20;102727;1290;25264;-69
2022/10/09 03:01:35;;;;;;;5.20;2.70;;;;;;;10.13;87.68;99126.52;102400;1294;341051;-71
2022/10/09 03:04:02;;;;;;;8.20;2.70;;;;;;;10.10;88.03;99133.51;102767;1306;22509;-72
2022/10/09 03:06:29;;;;;;;5.40;2.50;;;;;;;10.07;87.81;99141.61;102697;1306;25029;-70
2022/10/09 03:08:56;;;;;;;6.00;2.60;;;;;;;10.04;88.04;99135.91;102587;1306;138168;-70
2022/10/09 03:11:24;;;;;;;7.70;2.40;;;;;;;10.02;88.22;99141.48;102660;1312;22602;-73
2022/10/09 03:13:53;;;;;;;11.70;3.40;;;;;;;9.99;88.13;99148.39;102573;1311;138451;-69
2022/10/09 03:16:22;;;;;;;7.50;4.00;;;;;;;9.98;88.26;99152.09;102760;1307;24388;-68
2022/10/09 03:18:51;;;;;;;9.80;3.20;;;;;;;9.93;88.14;99152.85;102538;1313;22683;-74
2022/10/09 03:21:26;;;;;;;6.80;2.80;;;;;;;9.87;88.16;99154.11;102659;1312;137682;-70
2022/10/09 03:23:54;;;;;;;8.90;3.20;;;;;;;9.83;88.42;99157.88;102766;1307;26738;-71
2022/10/09 03:26:24;;;;;;;8.80;3.20;;;;;;;9.79;88.24;99159.92;102663;1297;137875;-72
2022/10/09 03:28:52;;;;;;;9.70;3.80;;;;;;;9.75;88.68;99159.87;102776;1298;22492;-68
2022/10/09 03:31:21;;;;;;;8.20;4.10;;;;;;;9.73;89.05;99157.00;102551;1312;138402;-69
2022/10/09 03:33:48;;;;;;;13.10;4.40;;;;;;;9.70;89.15;99159.04;102721;1312;22594;-71
2022/10/09 03:36:15;;;;;;;10.50;3.80;;;;;;;9.67;89.10;99163.78;102677;1297;22505;-72
2022/10/09 03:38:42;;;;;;;6.90;3.70;;;;;;;9.63;89.09;99166.61;102580;1312;138135;-74
2022/10/09 03:41:09;;;;;;;9.60;4.20;;;;;;;9.61;89.06;99168.80;102712;1312;22670;-73
2022/10/09 03:43:35;;;;;;;6.60;3.80;;;;;;;9.58;88.65;99168.20;102586;1297;138082;-70
2022/10/09 03:46:05;;;;;;;6.20;3.60;;;;;;;9.54;88.67;99168.95;102707;1312;22472;-70
2022/10/09 03:48:32;;;;;;;6.20;4.40;;;;;;;9.48;88.37;99168.70;102710;1311;24276;-71
2022/10/09 03:51:00;;;;;;;10.50;3.70;;;;;;;9.44;88.19;99173.23;102606;1312;138085;-69
2022/10/09 03:53:27;;;;;;;8.70;3.60;;;;;;;9.38;87.96;99177.31;102841;1312;22472;-71
2022/10/09 03:55:54;;;;;;;9.80;3.40;;;;;;;9.32;88.01;99177.80;102560;1298;137842;-70
2022/10/09 03:58:21;;;;;;;11.10;3.70;;;;;;;9.25;87.83;99178.05;102693;1301;25441;-72
2022/10/09 04:00:50;;;;;;;8.50;4.20;;;;;;;9.19;87.97;99182.77;102738;1312;22522;-69
2022/10/09 04:03:17;;;;;;;;;;;;;;;9.13;87.96;99187.11;102752;1312;138451;-69
2022/10/09 04:05:44;;;;;;;10.70;4.00;;;;;;;9.06;88.03;99189.58;102838;1312;23245;-69
2022/10/09 04:08:11;;;;;;;8.30;3.80;;;;;;;9.00;88.13;99196.66;102742;1312;138673;-69
2022/10/09 04:10:38;;;;;;;5.30;3.00;;;;;;;8.94;88.25;99197.95;102790;1296;25343;-69
2022/10/09 04:13:05;;;;;;;8.50;3.60;;;;;;;8.87;88.24;99200.00;102679;1313;138064;-69
2022/10/09 04:15:32;;;;;;;6.30;3.40;;;;;;;8.80;88.29;99206.38;102736;1312;22606;-69
2022/10/09 04:17:59;;;;;;;6.00;3.30;;;;;;;8.74;88.41;99203.77;102776;1291;22481;-70
2022/10/09 04:20:25;;;;;;;8.00;3.50;;;;;;;8.69;88.50;99208.13;102786;1300;138204;-69
2022/10/09 04:22:52;;;;;;;9.40;4.20;;;;;;;8.65;88.69;99209.39;102825;1310;22528;-69
2022/10/09 04:25:19;;;;;;;7.40;3.30;;;;;;;8.62;88.83;99209.07;102792;1302;138044;-70
2022/10/09 04:27:46;;;;;;;5.80;3.10;;;;;;;8.60;88.85;99210.20;102785;1290;22605;-69
2022/10/09 04:30:13;;;;;;;9.00;3.70;;;;;;;8.59;88.76;99215.34;102831;1304;22520;-69
2022/10/09 04:32:40;;;;;;;9.60;3.70;;;;;;;8.56;88.82;99215.80;102619;1312;138127;-69
2022/10/09 04:35:07;;;;;;;13.40;4.40;;;;;;;8.53;88.81;99222.88;102843;1291;22459;-69
2022/10/09 04:37:35;;;;;;;7.20;4.40;;;;;;;8.52;88.86;99224.75;102774;1312;138229;-69
2022/10/09 04:40:03;;;;;;;7.00;3.80;;;;;;;8.51;88.97;99224.72;102863;1300;25509;-69
2022/10/09 04:42:30;;;;;;;8.50;3.60;;;;;;;8.51;89.21;99227.59;102838;1306;23339;-69
2022/10/09 04:44:56;;;;;;;8.50;3.60;;;;;;;8.50;89.29;99230.44;102748;1297;137933;-69
2022/10/09 04:47:23;;;;;;;9.30;3.70;;;;;;;8.50;89.32;99237.66;102742;1291;22938;-69
2022/10/09 04:49:50;;;;;;;9.70;4.50;;;;;;;8.50;89.61;99240.75;102734;1300;138511;-70
2022/10/09 04:52:17;;;;;;;6.80;3.40;;;;;;;8.51;89.57;99244.80;102797;1312;22638;-69
2022/10/09 04:54:43;;;;;;;8.20;4.30;;;;;;;8.50;89.83;99251.27;102817;1308;22477;-69
2022/10/09 04:57:10;;;;;;;8.80;4.20;;;;;;;8.49;90.05;99250.15;102733;1312;137850;-69
2022/10/09 04:59:37;;;;;;;7.60;4.10;;;;;;;8.49;90.11;99254.09;102827;1312;25411;-69
2022/10/09 05:02:04;;;;;;;10.00;4.50;;;;;;;8.51;90.03;99255.49;102659;1312;137853;-69
2022/10/09 05:04:31;;;;;;;12.10;4.70;;;;;;;8.51;90.07;99256.33;102764;1307;22493;-69
2022/10/09 05:06:58;;;;;;;6.00;4.40;;;;;;;8.52;90.00;99257.45;102804;1304;22510;-69
2022/10/09 05:09:25;;;;;;;7.20;4.90;;;;;;;8.52;89.77;99260.17;102744;1304;22507;-69
2022/10/09 05:11:52;;;;;;;10.90;4.30;;;;;;;8.52;89.76;99258.16;102528;1313;25301;-69
2022/10/09 05:14:18;;;;;;;9.70;4.50;;;;;;;8.52;89.80;99260.42;102509;1313;138069;-69
2022/10/09 05:16:48;;;;;;;10.80;5.30;;;;;;;8.51;89.85;99262.17;102685;1313;25391;-69
2022/10/09 05:19:15;;;;;;;11.00;5.80;;;;;;;8.51;89.93;99264.69;102546;1301;138489;-69
2022/10/09 05:21:42;;;;;;;8.20;4.40;;;;;;;8.50;89.88;99269.33;102799;1313;22531;-69
2022/10/09 05:24:09;;;;;;;10.20;5.30;;;;;;;8.50;89.80;99270.24;102897;1291;22461;-70
2022/10/09 05:26:36;;;;;;;6.20;4.70;;;;;;;8.48;89.92;99271.95;102735;1291;138004;-69
2022/10/09 05:29:03;;;;;;;8.70;5.20;;;;;;;8.47;89.75;99270.45;102771;1312;24317;-70
2022/10/09 05:31:30;;;;;;;6.80;4.60;;;;;;;8.45;89.67;99271.38;102590;1311;138562;-69
2022/10/09 05:33:58;;;;;;;7.40;5.00;;;;;;;8.40;89.67;99272.17;102605;1303;22513;-69
2022/10/09 05:36:25;;;;;;;7.90;4.60;;;;;;;8.36;89.63;99275.40;102565;1314;22520;-70
2022/10/09 05:38:52;;;;;;;9.10;4.70;;;;;;;8.34;89.69;99282.21;102577;1313;137916;-69
2022/10/09 05:41:19;;;;;;;8.90;4.50;;;;;;;8.31;89.82;99290.56;102680;1296;22506;-69
2022/10/09 05:43:47;;;;;;;8.50;4.80;;;;;;;8.31;90.05;99300.55;102846;1312;137778;-69
2022/10/09 05:46:20;;;;;;;6.80;4.60;;;;;;;8.32;90.01;99302.91;102753;1312;22608;-69
2022/10/09 05:49:10;;;;;;;8.50;5.00;;;;;;;8.33;90.05;99306.18;102751;1291;22475;-69
2022/10/09 05:51:43;;;;;;;9.40;4.90;;;;;;;8.37;90.40;99308.02;102852;1312;25583;-69
2022/10/09 05:54:15;;;;;;;6.80;4.20;;;;;;;8.42;90.35;99311.66;102774;1312;22680;-70
2022/10/09 05:56:43;;;;;;;7.20;3.50;;;;;;;8.49;90.34;99316.39;102762;1312;138095;-69
2022/10/09 05:59:18;;;;;;;7.70;3.40;;;;;;;8.56;90.17;99312.16;102770;1291;26610;-69
2022/10/09 06:01:48;;;;;;;5.00;2.80;;;;;;;8.64;89.86;99315.15;102662;1312;138268;-69
2022/10/09 06:04:21;;;;;;;5.20;2.50;;;;;;;8.71;89.55;99317.86;102801;1313;22488;-69
2022/10/09 06:06:49;;;;;;;5.20;2.50;;;;;;;8.77;89.06;99319.90;102654;1291;24270;-70
2022/10/09 06:09:21;;;;;;;4.10;2.50;;;;;;;8.82;88.69;99324.20;102598;1313;138007;-69
2022/10/09 06:11:50;;;;;;;4.10;2.40;;;;;;;8.86;88.27;99327.20;102718;1300;25240;-69
2022/10/09 06:14:17;;;;;;;3.90;2.30;;;;;;;8.90;87.97;99334.45;102678;1307;138281;-70
2022/10/09 06:16:44;;;;;;;5.40;2.20;;;;;;;8.92;87.93;99341.52;102769;1312;22488;-70
2022/10/09 06:19:14;;;;;;;2.60;2.00;;;;;;;8.93;87.78;99345.05;102536;1312;138200;-69
2022/10/09 06:21:42;;;;;;;6.80;2.40;;;;;;;8.95;87.32;99349.73;102840;1294;22519;-67
2022/10/09 06:24:19;;;;;;;6.50;2.50;;;;;;;8.96;87.18;99353.86;102728;1290;22669;-69
2022/10/09 06:26:46;;;;;;;4.90;2.50;;;;;;;8.97;87.06;99357.85;102603;1315;138232;-71
2022/10/09 06:29:13;;;;;;;6.40;2.40;;;;;;;8.99;87.21;99360.44;102614;1312;25409;-68
2022/10/09 06:31:39;;;;;;;3.60;2.20;;;;;;;9.01;87.17;99356.29;102404;1312;138680;-70
2022/10/09 06:34:08;;;;;;;4.80;2.70;;;;;;;9.08;87.86;99363.16;102880;1300;25400;-70
2022/10/09 06:36:35;;;;;;;5.50;2.30;;;;;;;9.24;88.18;99361.66;102740;1310;24033;-73
2022/10/09 06:39:06;;;;;;;2.10;1.80;;;;;;;9.40;87.12;99370.08;102915;1312;137995;-71
2022/10/09 06:41:34;;;;;;;4.00;2.20;;;;;;;9.56;86.49;99375.30;102838;1312;22534;-71
2022/10/09 06:44:12;;;;;;;7.00;3.10;;;;;;;9.70;86.27;99374.81;102591;1314;138268;-71
2022/10/09 06:46:40;;;;;;;4.00;2.50;;;;;;;9.81;86.01;99372.09;102801;1314;23455;-68
2022/10/09 06:49:09;;;;;;;8.70;2.60;;;;;;;9.88;85.33;99378.73;102526;1298;138058;-70
2022/10/09 06:51:36;;;;;;;2.70;2.00;;;;;;;9.92;84.79;99382.58;102703;1306;24353;-69
2022/10/09 06:54:09;;;;;;;5.40;2.10;;;;;;;9.90;84.56;99383.76;102697;1314;24389;-70
2022/10/09 06:56:36;;;;;;;5.30;2.50;;;;;;;9.89;84.23;99389.86;102540;1302;138194;-68
2022/10/09 06:59:04;;;;;;;6.00;2.20;;;;;;;9.86;83.66;99386.83;102604;1313;22490;-68
2022/10/09 07:01:32;;;;;;;4.90;1.90;;;;;;;9.82;83.50;99394.17;102777;1313;138119;-70
2022/10/09 07:04:02;;;;;;;4.00;2.10;;;;;;;9.77;83.66;99395.71;102667;1313;25432;-68
2022/10/09 07:06:31;;;;;;;4.50;1.90;;;;;;;9.75;83.48;99398.52;102758;1308;22618;-70
2022/10/09 07:09:01;;;;;;;4.90;2.40;;;;;;;9.75;83.88;99398.45;102640;1310;137938;-68
2022/10/09 07:11:33;;;;;;;5.60;2.80;;;;;;;9.76;83.98;99397.17;102587;1313;22603;-70
2022/10/09 07:14:04;;;;;;;5.60;2.50;;;;;;;9.80;83.37;99397.48;102869;1307;137879;-69
2022/10/09 07:16:33;;;;;;;7.10;3.80;;;;;;;9.84;83.44;99397.85;102833;1314;24448;-69
2022/10/09 07:19:02;;;;;;;5.90;2.30;;;;;;;9.87;82.24;99400.77;102843;1313;22512;-70
2022/10/09 07:21:29;;;;;;;4.60;2.20;;;;;;;9.90;81.84;99399.96;102552;1298;138350;-68
2022/10/09 07:23:58;;;;;;;3.60;2.10;;;;;;;9.94;82.11;99401.32;102687;1290;22491;-70
2022/10/09 07:26:26;;;;;;;;;;;;;;;10.01;82.10;99402.61;102490;1304;138144;-68
2022/10/09 07:28:53;;;;;;;5.90;2.20;;;;;;;10.08;81.38;99404.41;102672;1313;24278;-68
2022/10/09 07:31:21;;;;;;;7.90;2.60;;;;;;;10.12;81.18;99407.27;102527;1313;138825;-68
2022/10/09 07:33:50;;;;;;;8.30;2.80;;;;;;;10.15;81.59;99410.44;102554;1313;22742;-70
2022/10/09 07:36:18;;;;;;;5.80;2.60;;;;;;;10.19;81.37;99414.44;102657;1313;25666;-69
2022/10/09 07:38:52;;;;;;;4.10;2.30;;;;;;;10.26;81.13;99417.03;102553;1307;138168;-68
2022/10/09 07:41:20;;;;;;;5.40;2.50;;;;;;;10.31;79.88;99420.17;102692;1314;22589;-70
2022/10/09 07:43:48;;;;;;;5.40;2.70;;;;;;;10.34;80.28;99421.24;102530;1314;138257;-67
2022/10/09 07:46:17;;;;;;;4.80;2.90;;;;;;;10.37;79.68;99422.61;102676;1313;22533;-68
2022/10/09 07:48:45;;;;;;;5.50;3.00;;;;;;;10.43;80.27;99425.00;102656;1313;24421;-68
2022/10/09 07:51:20;;;;;;;7.20;3.30;;;;;;;10.51;79.28;99423.98;102508;1313;138026;-69
2022/10/09 07:53:47;;;;;;;9.50;4.40;;;;;;;10.53;78.43;99421.66;102827;1312;22475;-68
2022/10/09 07:56:22;;;;;;;12.10;4.30;;;;;;;10.49;78.13;99425.66;102845;1297;139063;-68
2022/10/09 07:58:52;;;;;;;7.30;4.40;;;;;;;10.47;78.06;99425.64;102793;1312;22496;-70
2022/10/09 08:01:20;;;;;;;11.10;6.20;;;;;;;10.48;78.77;99425.42;102705;1295;138357;-69
2022/10/09 08:03:47;;;;;;;7.80;4.70;;;;;;;10.54;79.15;99422.70;102834;1312;22602;-69
2022/10/09 08:06:15;;;;;;;6.70;3.50;;;;;;;10.62;77.48;99428.80;102691;1313;23141;-69
2022/10/09 08:08:43;;;;;;;6.20;3.70;;;;;;;10.65;76.44;99429.23;102492;1306;138881;-69
2022/10/09 08:11:12;;;;;;;8.70;4.30;;;;;;;10.63;76.39;99428.82;102616;1313;24053;-69
2022/10/09 08:13:40;;;;;;;;;;;;;;;10.66;77.16;99427.98;102670;1313;138252;-69
2022/10/09 08:16:07;;;;;;;11.60;5.10;;;;;;;10.67;77.64;99430.95;102834;1308;24472;-69
2022/10/09 08:18:35;;;;;;;8.60;5.50;;;;;;;10.69;78.18;99431.02;102905;1304;25348;-69
2022/10/09 08:21:05;;;;;;;10.60;5.80;;;;;;;10.73;77.73;99436.59;102752;1304;138438;-69
2022/10/09 08:23:32;;;;;;;14.40;8.20;;;;;;;10.81;77.62;99434.30;102745;1311;22474;-69
2022/10/09 08:25:59;;;;;;;17.10;7.30;;;;;;;10.92;77.81;99440.11;102567;1306;138518;-70
2022/10/09 08:28:26;;;;;;;11.60;6.20;;;;;;;11.10;78.20;99444.67;102514;1314;25629;-74
2022/10/09 08:30:53;;;;;;;14.20;5.50;;;;;;;11.18;76.35;99449.11;102623;1300;22477;-70
2022/10/09 08:33:22;;;;;;;5.20;3.50;;;;;;;11.14;74.12;99451.61;102462;1312;138263;-69
2022/10/09 08:35:49;;;;;;;5.90;3.60;;;;;;;11.07;73.96;99450.22;102750;1307;24450;-69
2022/10/09 08:38:16;;;;;;;8.10;3.50;;;;;;;11.03;74.31;99450.80;102625;1312;138130;-70
2022/10/09 08:40:56;;;;;;;10.80;3.10;;;;;;;11.03;73.61;99453.66;102710;1297;22486;-74
2022/10/09 08:43:30;;;;;;;7.60;4.00;;;;;;;11.06;74.08;99454.27;102683;1312;138759;-69
2022/10/09 08:46:02;;;;;;;8.00;3.80;;;;;;;11.16;73.92;99459.70;102562;1314;25461;-70
2022/10/09 08:48:35;;;;;;;11.60;4.80;;;;;;;11.32;74.66;99456.36;102688;1314;26706;-69
2022/10/09 08:51:04;;;;;;;8.00;4.70;;;;;;;11.54;74.60;99461.23;102538;1313;138257;-74
2022/10/09 08:53:46;;;;;;;5.20;3.20;;;;;;;11.75;72.66;99460.55;102587;1306;22524;-73
2022/10/09 08:56:14;;;;;;;2.20;1.70;;;;;;;11.80;70.79;99462.92;102729;1309;138281;-70
2022/10/09 08:58:43;;;;;;;5.30;3.30;;;;;;;11.73;69.99;99470.69;102525;1296;22487;-70
2022/10/09 09:01:31;;;;;;;5.90;3.60;;;;;;;11.65;70.57;99470.83;102530;1313;138414;-70
2022/10/09 09:04:07;;;;;;;5.10;3.20;;;;;;;11.56;70.46;99469.54;102743;1313;25396;-69
2022/10/09 09:06:49;;;;;;;6.00;2.80;;;;;;;11.50;70.37;99470.39;102607;1313;22466;-70
2022/10/09 09:09:22;;;;;;;4.40;2.80;;;;;;;11.60;70.57;99464.46;102624;1297;138194;-68
2022/10/09 09:12:24;;;;;;;4.60;1.90;;;;;;;11.78;70.48;99466.36;102610;1312;22536;-68
2022/10/09 09:15:07;;;;;;;3.50;2.10;;;;;;;11.97;69.39;99467.91;102506;1313;138194;-69
2022/10/09 09:18:20;;;;;;;7.40;2.50;;;;;;;12.10;69.08;99468.02;102796;1306;23209;-69
2022/10/09 09:20:52;;;;;;;3.00;2.10;;;;;;;12.30;69.17;99467.86;102515;1313;138301;-69
2022/10/09 09:23:30;;;;;;;3.60;2.30;;;;;;;12.46;68.59;99464.06;102782;1309;22896;-69
2022/10/09 09:25:58;;;;;;;4.60;1.90;;;;;;;12.62;67.99;99461.21;102564;1314;138146;-68
2022/10/09 09:28:30;;;;;;;2.80;1.60;;;;;;;12.79;67.20;99461.83;102888;1292;22533;-70
2022/10/09 09:31:20;;;;;;;6.30;2.30;;;;;;;12.97;66.30;99458.38;102673;1313;22608;-70
2022/10/09 09:34:22;;;;;;;3.00;1.20;;;;;;;13.14;66.16;99459.23;102665;1313;25487;-70
2022/10/09 09:36:58;;;;;;;1.60;1.20;;;;;;;13.35;63.61;99452.61;102725;1310;25359;-70
2022/10/09 09:39:30;;;;;;;4.80;1.30;;;;;;;13.38;62.38;99456.57;102622;1313;138588;-69
2022/10/09 09:42:06;;;;;;;1.70;0.90;;;;;;;13.34;62.70;99454.36;102707;1296;25331;-71
2022/10/09 09:44:36;;;;;;;2.90;1.00;;;;;;;13.45;62.39;99456.23;102521;1313;138846;-69
2022/10/09 09:47:04;;;;;;;3.10;1.20;;;;;;;13.60;61.74;99457.34;102651;1297;22478;-70
2022/10/09 09:49:30;;;;;;;2.90;1.20;;;;;;;13.75;61.68;99454.76;102618;1313;137589;-69
2022/10/09 09:52:00;;;;;;;3.10;0.90;;;;;;;13.87;61.66;99455.61;102677;1307;24217;-70
2022/10/09 09:54:29;;;;;;;3.80;1.30;;;;;;;13.79;60.23;99456.59;102733;1313;25720;-70
2022/10/09 09:57:00;;;;;;;3.60;1.00;;;;;;;13.78;60.11;99458.76;102801;1293;138055;-69
2022/10/09 09:59:38;;;;;;;3.10;1.00;;;;;;;13.86;59.68;99458.88;102793;1313;22476;-70
2022/10/09 10:02:04;;;;;;;1.70;1.10;;;;;;;13.90;58.34;99459.73;102836;1300;138384;-69
2022/10/09 10:04:31;;;;;;;6.20;1.80;;;;;;;13.88;57.79;99455.17;102879;1312;24274;-68
2022/10/09 10:06:58;;;;;;;1.10;0.90;;;;;;;13.93;58.38;99455.03;102920;1313;25559;-69
2022/10/09 10:09:25;;;;;;;2.90;1.20;;;;;;;14.03;58.15;99454.14;102509;1291;137377;-70
2022/10/09 10:11:58;;;;;;;2.70;1.30;;;;;;;14.19;58.58;99451.98;102641;1314;22831;-68
2022/10/09 10:14:26;;;;;;;4.70;1.40;;;;;;;14.35;57.98;99449.98;102584;1312;137463;-71
2022/10/09 10:16:55;;;;;;;3.20;1.20;;;;;;;14.49;58.77;99444.38;102813;1312;22513;-70
2022/10/09 10:19:28;;;;;;;2.70;1.00;;;;;;;14.59;57.59;99440.57;102845;1312;137585;-70
2022/10/09 10:22:03;;;;;;;4.10;1.30;;;;;;;14.45;55.93;99443.09;102842;1310;22536;-70
2022/10/09 10:24:34;;;;;;;3.20;1.30;;;;;;;14.26;56.19;99441.27;102773;1313;24358;-69
2022/10/09 10:27:10;;;;;;;2.50;0.90;;;;;;;14.14;56.93;99439.50;102614;1312;137980;-70
2022/10/09 10:29:41;;;;;;;1.80;0.80;;;;;;;14.24;56.02;99436.04;102750;1313;24253;-70
2022/10/09 10:33:02;;;;;;;4.80;1.10;;;;;;;14.35;56.12;99434.26;102703;1299;137615;-70
2022/10/09 10:35:35;;;;;;;3.40;1.10;;;;;;;14.43;55.77;99432.54;101701;1322;22598;-69
2022/10/09 10:38:12;;;;;;;6.10;1.00;;;;;;;14.28;55.24;99440.10;102124;1311;137545;-68
2022/10/09 10:40:39;;;;;;;3.60;1.00;;;;;;;14.12;55.41;99442.36;102214;1317;24363;-68
2022/10/09 10:43:08;;;;;;;2.40;0.90;;;;;;;14.13;55.49;99441.13;102122;1304;24208;-71
2022/10/09 10:45:41;;;;;;;2.40;1.00;;;;;;;14.24;55.77;99445.61;102080;1316;137651;-69
2022/10/09 10:48:17;;;;;;;3.10;1.20;;;;;;;14.16;54.38;99440.54;101932;1312;22493;-70
2022/10/09 10:51:05;;;;;;;3.40;1.00;;;;;;;14.02;55.19;99440.15;101828;1297;137772;-70
2022/10/09 10:53:32;;;;;;;1.80;0.90;;;;;;;13.78;54.53;99441.31;101848;1320;22977;-70
2022/10/09 10:56:07;;;;;;;1.50;0.60;;;;;;;13.67;56.54;99440.14;101868;1320;137643;-70
2022/10/09 10:58:56;;;;;;;1.20;0.70;;;;;;;13.85;56.61;99440.79;102078;1320;22545;-70
2022/10/09 11:01:43;;;;;;;2.90;1.10;;;;;;;14.10;55.97;99442.45;102055;1318;137578;-71
2022/10/09 11:05:01;;;;;;;2.20;1.20;;;;;;;14.33;55.68;99443.30;102206;1318;24286;-69
2022/10/09 11:07:51;;;;;;;4.70;1.10;;;;;;;14.47;55.55;99443.36;101298;1318;137850;-70
2022/10/09 11:10:39;;;;;;;2.80;1.20;;;;;;;14.51;55.63;99437.95;101830;1319;22482;-70
2022/10/09 11:13:43;;;;;;;2.40;1.10;;;;;;;14.55;55.63;99432.98;101973;1317;22957;-69
2022/10/09 11:16:18;;;;;;;2.60;1.00;;;;;;;14.68;55.08;99433.34;102163;1319;24469;-70
2022/10/09 11:18:47;;;;;;;7.20;1.20;;;;;;;14.78;55.02;99429.55;102122;1318;24531;-69
2022/10/09 11:21:43;;;;;;;3.40;0.90;;;;;;;14.94;54.95;99432.61;101986;1318;139413;-70
2022/10/09 11:24:22;;;;;;;3.60;1.20;;;;;;;15.10;54.37;99431.98;102122;1318;22524;-69
2022/10/09 11:27:17;;;;;;;3.60;1.00;;;;;;;15.22;54.38;99427.40;101987;1305;137408;-68
2022/10/09 11:29:56;;;;;;;2.60;1.30;;;;;;;15.07;53.93;99426.11;102044;1293;24585;-69
2022/10/09 11:32:31;;;;;;;2.60;1.20;;;;;;;14.80;54.43;99426.23;102050;1309;137623;-70
2022/10/09 11:35:22;;;;;;;3.50;1.10;;;;;;;14.56;54.91;99427.34;102125;1311;22480;-69
2022/10/09 11:38:03;;;;;;;4.30;1.30;;;;;;;14.25;55.28;99427.01;101989;1317;137647;-70
2022/10/09 11:40:37;;;;;;;3.40;1.40;;;;;;;14.13;56.12;99426.55;102113;1318;24280;-69
2022/10/09 11:43:13;;;;;;;3.90;1.30;;;;;;;14.25;55.84;99423.93;102339;1312;22486;-69
2022/10/09 11:45:49;;;;;;;2.90;1.10;;;;;;;14.39;55.30;99420.09;102736;1312;137188;-74